Time;durP1;ratioP1;P1;durP2;ratioP2;P2;SDS_P1;SDS_P2;PMS_P1;PMS_P2;Temp;Humidity;BMP_temperature;BMP_pressure;BME280_temperature;BME280_humidity;BME280_pressure;Samples;Min_cycle;Max_cycle;Signal;HPM_P1;HPM_P2
2022/01/08 00:00:31;;;;;;;5.13;3.40;;;;;;;;;;5081857;28;20318;-56
2022/01/08 00:02:57;;;;;;;4.97;3.47;;;;;;;;;;5079870;28;20231;-58
2022/01/08 00:05:23;;;;;;;4.60;3.33;;;;;;;;;;5071791;28;20176;-56
2022/01/08 00:07:50;;;;;;;3.53;3.20;;;;;;;;;;5079102;28;20179;-56
2022/01/08 00:10:16;;;;;;;4.37;2.90;;;;;;;;;;5086221;28;20627;-57
2022/01/08 00:12:42;;;;;;;5.90;3.10;;;;;;;;;;5085801;28;20815;-55
2022/01/08 00:15:09;;;;;;;4.43;3.33;;;;;;;;;;5083879;28;20188;-56
2022/01/08 00:17:35;;;;;;;3.43;2.83;;;;;;;;;;5079338;28;20192;-56
2022/01/08 00:20:01;;;;;;;5.70;3.20;;;;;;;;;;5069063;28;20180;-56
2022/01/08 00:22:27;;;;;;;5.57;3.30;;;;;;;;;;5086676;28;20211;-56
2022/01/08 00:24:54;;;;;;;3.97;2.70;;;;;;;;;;5086362;28;20180;-56
2022/01/08 00:27:20;;;;;;;3.20;2.60;;;;;;;;;;5086808;28;20172;-56
2022/01/08 00:29:46;;;;;;;4.87;3.17;;;;;;;;;;5079038;28;20595;-57
2022/01/08 00:32:14;;;;;;;3.57;2.93;;;;;;;;;;5085172;28;20554;-56
2022/01/08 00:34:40;;;;;;;3.67;2.90;;;;;;;;;;5085968;28;20179;-56
2022/01/08 00:37:06;;;;;;;3.20;2.90;;;;;;;;;;5090766;28;20179;-56
2022/01/08 00:39:33;;;;;;;3.63;3.23;;;;;;;;;;5089917;28;20558;-56
2022/01/08 00:41:59;;;;;;;3.13;2.73;;;;;;;;;;5070053;28;20582;-56
2022/01/08 00:44:25;;;;;;;5.50;3.07;;;;;;;;;;5084208;28;20499;-56
2022/01/08 00:46:51;;;;;;;5.03;3.67;;;;;;;;;;5086938;28;20683;-56
2022/01/08 00:49:17;;;;;;;3.90;3.07;;;;;;;;;;5088967;28;20671;-56
2022/01/08 00:51:43;;;;;;;4.30;2.60;;;;;;;;;;5087464;28;20191;-56
2022/01/08 00:54:09;;;;;;;6.27;2.80;;;;;;;;;;5076879;28;20219;-56
2022/01/08 00:56:35;;;;;;;3.27;2.90;;;;;;;;;;5089485;28;20512;-56
2022/01/08 00:59:03;;;;;;;5.40;3.60;;;;;;;;;;5089247;28;20187;-56
2022/01/08 01:01:29;;;;;;;4.37;3.23;;;;;;;;;;5087637;28;20446;-55
2022/01/08 01:03:55;;;;;;;4.20;3.13;;;;;;;;;;5088226;28;20168;-56
2022/01/08 01:06:22;;;;;;;3.23;2.87;;;;;;;;;;5090033;28;20233;-56
2022/01/08 01:08:48;;;;;;;4.67;2.97;;;;;;;;;;5088967;28;20184;-55
2022/01/08 01:11:14;;;;;;;5.43;3.40;;;;;;;;;;5089260;28;20199;-56
2022/01/08 01:13:40;;;;;;;4.30;3.87;;;;;;;;;;5060474;28;20639;-56
2022/01/08 01:16:06;;;;;;;4.13;3.17;;;;;;;;;;5088359;28;20211;-55
2022/01/08 01:18:33;;;;;;;3.27;2.87;;;;;;;;;;5083046;28;20564;-56
2022/01/08 01:20:59;;;;;;;3.97;3.40;;;;;;;;;;5072160;28;20179;-56
2022/01/08 01:23:31;;;;;;;4.07;3.03;;;;;;;;;;5086206;28;20534;-56
2022/01/08 01:26:02;;;;;;;3.83;3.17;;;;;;;;;;5085105;28;20164;-56
2022/01/08 01:42:06;;;;;;;3.47;3.17;;;;;;;;;;5086090;28;20183;-56
2022/01/08 01:47:18;;;;;;;4.17;3.17;;;;;;;;;;5085799;28;20198;-56
2022/01/08 01:49:45;;;;;;;5.43;3.03;;;;;;;;;;5078705;28;20212;-56
2022/01/08 01:52:14;;;;;;;5.73;3.47;;;;;;;;;;5086850;28;20408;-56
2022/01/08 01:54:41;;;;;;;4.60;3.20;;;;;;;;;;5074151;28;20472;-56
2022/01/08 01:57:07;;;;;;;4.17;3.17;;;;;;;;;;5068682;28;20231;-56
2022/01/08 01:59:34;;;;;;;3.93;3.50;;;;;;;;;;5072684;28;20667;-55
2022/01/08 02:02:00;;;;;;;3.70;3.40;;;;;;;;;;5067586;28;20208;-56
2022/01/08 02:04:27;;;;;;;3.60;3.17;;;;;;;;;;5072256;28;20175;-56
2022/01/08 02:06:53;;;;;;;5.43;3.40;;;;;;;;;;5068609;28;20168;-56
2022/01/08 02:09:19;;;;;;;5.17;4.03;;;;;;;;;;5073388;28;20251;-56
2022/01/08 02:11:55;;;;;;;3.43;3.13;;;;;;;;;;5065476;28;20670;-56
2022/01/08 02:14:21;;;;;;;5.37;3.67;;;;;;;;;;5065942;28;20314;-56
2022/01/08 02:16:47;;;;;;;4.33;3.83;;;;;;;;;;5066152;28;20271;-56
2022/01/08 02:19:13;;;;;;;5.43;3.17;;;;;;;;;;5071917;28;20568;-56
2022/01/08 02:21:39;;;;;;;4.50;3.10;;;;;;;;;;5068496;28;20186;-56
2022/01/08 02:24:06;;;;;;;5.07;3.23;;;;;;;;;;5068631;28;20191;-56
2022/01/08 02:26:32;;;;;;;5.00;3.60;;;;;;;;;;5049809;28;20176;-56
2022/01/08 02:28:58;;;;;;;4.83;3.47;;;;;;;;;;5071016;28;20190;-55
2022/01/08 02:31:25;;;;;;;4.33;3.57;;;;;;;;;;5067159;28;20631;-56
2022/01/08 02:33:52;;;;;;;4.43;3.77;;;;;;;;;;5069383;28;20192;-56
2022/01/08 02:36:18;;;;;;;5.53;3.80;;;;;;;;;;5065699;28;20470;-55
2022/01/08 02:38:45;;;;;;;6.00;4.00;;;;;;;;;;5073093;28;20192;-56
2022/01/08 02:41:12;;;;;;;6.07;3.53;;;;;;;;;;5071525;28;20565;-56
2022/01/08 02:43:44;;;;;;;5.00;3.27;;;;;;;;;;5067798;28;20273;-55
2022/01/08 02:46:10;;;;;;;4.10;3.20;;;;;;;;;;5065759;28;20647;-56
2022/01/08 02:48:36;;;;;;;4.67;3.37;;;;;;;;;;5069299;28;20188;-56
2022/01/08 02:51:02;;;;;;;4.10;3.70;;;;;;;;;;5050439;28;20176;-55
2022/01/08 02:53:28;;;;;;;4.53;3.70;;;;;;;;;;5050173;28;20216;-56
2022/01/08 02:55:55;;;;;;;5.80;3.43;;;;;;;;;;5067339;28;20184;-55
2022/01/08 02:58:25;;;;;;;6.23;3.93;;;;;;;;;;5050242;28;20643;-56
2022/01/08 03:00:51;;;;;;;5.13;3.90;;;;;;;;;;5068286;28;20207;-56
2022/01/08 03:03:17;;;;;;;7.13;4.43;;;;;;;;;;5067688;28;20195;-56
2022/01/08 03:05:43;;;;;;;7.73;3.73;;;;;;;;;;5066534;28;20172;-55
2022/01/08 03:08:10;;;;;;;5.37;4.07;;;;;;;;;;5057495;28;20718;-55
2022/01/08 03:10:36;;;;;;;3.97;3.60;;;;;;;;;;5068549;28;20538;-56
2022/01/08 03:13:02;;;;;;;4.97;4.17;;;;;;;;;;5074176;28;20231;-56
2022/01/08 03:15:28;;;;;;;5.50;4.03;;;;;;;;;;5067156;28;20259;-55
2022/01/08 03:17:54;;;;;;;7.30;4.00;;;;;;;;;;5070169;28;20309;-55
2022/01/08 03:20:20;;;;;;;4.77;3.73;;;;;;;;;;5069076;28;20355;-56
2022/01/08 03:22:47;;;;;;;5.67;3.73;;;;;;;;;;5067238;28;20468;-56
2022/01/08 03:25:14;;;;;;;4.43;4.03;;;;;;;;;;5068725;28;20467;-56
2022/01/08 03:27:41;;;;;;;4.30;3.60;;;;;;;;;;5058402;28;20414;-56
2022/01/08 03:30:08;;;;;;;5.10;4.30;;;;;;;;;;5066907;28;20419;-56
2022/01/08 03:32:34;;;;;;;4.93;4.43;;;;;;;;;;5076395;28;20462;-55
2022/01/08 03:35:00;;;;;;;4.47;4.03;;;;;;;;;;5067377;28;20183;-56
2022/01/08 03:37:26;;;;;;;4.80;3.77;;;;;;;;;;5058829;28;20187;-56
2022/01/08 03:39:52;;;;;;;5.37;4.47;;;;;;;;;;5071723;28;20434;-56
2022/01/08 03:42:18;;;;;;;6.10;4.80;;;;;;;;;;5066101;28;20200;-56
2022/01/08 03:44:44;;;;;;;5.90;4.83;;;;;;;;;;5065259;28;20188;-56
2022/01/08 03:47:31;;;;;;;5.43;4.60;;;;;;;;;;5076752;28;20414;-56
2022/01/08 03:49:58;;;;;;;8.10;5.73;;;;;;;;;;5063519;28;20184;-56
2022/01/08 03:52:24;;;;;;;7.30;6.33;;;;;;;;;;5065846;28;20422;-56
2022/01/08 03:54:50;;;;;;;8.17;6.67;;;;;;;;;;5076385;28;20531;-56
2022/01/08 03:57:17;;;;;;;7.77;6.20;;;;;;;;;;5086104;28;20447;-56
2022/01/08 03:59:43;;;;;;;8.43;5.73;;;;;;;;;;5069946;28;20422;-56
2022/01/08 04:02:09;;;;;;;7.83;7.00;;;;;;;;;;5071287;28;20793;-56
2022/01/08 04:04:36;;;;;;;9.20;7.27;;;;;;;;;;5037432;28;20434;-56
2022/01/08 04:07:02;;;;;;;11.27;8.00;;;;;;;;;;5070316;28;20800;-55
2022/01/08 04:09:28;;;;;;;10.87;8.50;;;;;;;;;;5054924;28;20980;-56
2022/01/08 04:11:56;;;;;;;9.33;6.87;;;;;;;;;;5072369;28;20415;-55
2022/01/08 04:14:22;;;;;;;7.63;6.83;;;;;;;;;;5070873;28;20469;-56
2022/01/08 04:16:51;;;;;;;13.07;9.60;;;;;;;;;;5077666;28;20972;-56
2022/01/08 04:19:19;;;;;;;8.20;7.23;;;;;;;;;;5072250;28;20452;-56
2022/01/08 04:22:09;;;;;;;9.33;7.67;;;;;;;;;;5070549;28;20426;-56
2022/01/08 04:24:35;;;;;;;12.03;8.60;;;;;;;;;;5075201;28;20452;-56
2022/01/08 04:27:01;;;;;;;13.17;8.60;;;;;;;;;;5084982;28;20847;-56
2022/01/08 04:29:27;;;;;;;10.03;8.10;;;;;;;;;;5062459;28;20467;-56
2022/01/08 04:31:53;;;;;;;13.13;9.27;;;;;;;;;;5070238;28;20450;-56
2022/01/08 04:34:19;;;;;;;12.27;9.57;;;;;;;;;;5065597;28;20181;-56
2022/01/08 04:36:45;;;;;;;10.77;8.43;;;;;;;;;;5080835;28;20417;-56
2022/01/08 04:39:11;;;;;;;14.27;9.13;;;;;;;;;;5066970;28;20428;-56
2022/01/08 04:41:37;;;;;;;15.37;9.60;;;;;;;;;;5068562;28;20419;-56
2022/01/08 04:44:06;;;;;;;12.43;9.23;;;;;;;;;;5070269;28;20480;-56
2022/01/08 04:46:32;;;;;;;10.03;8.50;;;;;;;;;;5074227;28;20446;-56
2022/01/08 04:48:58;;;;;;;14.33;8.77;;;;;;;;;;5052369;28;20903;-56
2022/01/08 04:51:24;;;;;;;12.03;9.00;;;;;;;;;;5070808;28;20510;-56
2022/01/08 04:53:50;;;;;;;10.77;8.27;;;;;;;;;;5069841;28;20295;-56
2022/01/08 04:56:16;;;;;;;12.47;8.17;;;;;;;;;;5052308;28;20561;-58
2022/01/08 04:58:42;;;;;;;12.50;9.13;;;;;;;;;;5070687;28;20423;-56
2022/01/08 05:01:12;;;;;;;10.87;9.63;;;;;;;;;;5051715;28;20462;-56
2022/01/08 05:03:38;;;;;;;11.40;9.23;;;;;;;;;;5070200;28;20458;-56
2022/01/08 05:06:04;;;;;;;11.17;9.13;;;;;;;;;;5086777;28;20800;-56
2022/01/08 05:08:30;;;;;;;10.53;8.50;;;;;;;;;;5073573;28;20737;-56
2022/01/08 05:10:56;;;;;;;12.83;8.83;;;;;;;;;;5069930;28;20419;-56
2022/01/08 05:13:22;;;;;;;12.13;9.30;;;;;;;;;;5074620;28;20210;-56
2022/01/08 05:15:48;;;;;;;12.20;9.07;;;;;;;;;;5051225;28;20415;-56
2022/01/08 05:18:14;;;;;;;12.67;8.97;;;;;;;;;;5068650;28;20180;-56
2022/01/08 05:20:45;;;;;;;10.50;8.13;;;;;;;;;;5066562;28;20450;-56
2022/01/08 05:23:11;;;;;;;12.37;8.40;;;;;;;;;;5069676;28;20450;-56
2022/01/08 05:25:39;;;;;;;10.23;8.70;;;;;;;;;;5069918;28;20453;-56
2022/01/08 05:28:05;;;;;;;9.63;8.40;;;;;;;;;;5070860;28;20418;-56
2022/01/08 05:30:31;;;;;;;11.53;9.00;;;;;;;;;;5067964;28;20742;-56
2022/01/08 05:32:57;;;;;;;10.83;8.00;;;;;;;;;;5071906;28;20816;-56
2022/01/08 05:35:24;;;;;;;11.57;8.33;;;;;;;;;;5074056;28;20415;-56
2022/01/08 05:37:50;;;;;;;12.40;7.50;;;;;;;;;;5069104;28;20434;-56
2022/01/08 05:40:16;;;;;;;10.67;8.20;;;;;;;;;;5071094;28;21026;-56
2022/01/08 05:42:42;;;;;;;11.47;8.93;;;;;;;;;;5085113;28;20591;-56
2022/01/08 05:45:08;;;;;;;12.03;8.80;;;;;;;;;;5076042;28;21212;-56
2022/01/08 05:47:35;;;;;;;11.83;8.70;;;;;;;;;;5068160;28;20548;-56
2022/01/08 05:50:01;;;;;;;11.17;8.83;;;;;;;;;;5069102;28;20411;-56
2022/01/08 05:52:27;;;;;;;10.27;8.53;;;;;;;;;;5066141;28;20480;-56
2022/01/08 05:54:53;;;;;;;10.07;8.60;;;;;;;;;;5069433;28;20461;-56
2022/01/08 05:57:19;;;;;;;11.10;8.70;;;;;;;;;;5067416;28;20233;-56
2022/01/08 05:59:45;;;;;;;12.73;8.57;;;;;;;;;;5050562;28;20430;-56
2022/01/08 06:02:12;;;;;;;9.90;7.60;;;;;;;;;;5067239;28;20505;-56
2022/01/08 06:04:38;;;;;;;9.77;7.87;;;;;;;;;;5064343;28;20195;-56
2022/01/08 06:07:04;;;;;;;11.73;7.93;;;;;;;;;;5066843;28;20512;-56
2022/01/08 06:09:30;;;;;;;12.03;8.07;;;;;;;;;;5067464;28;20949;-56
2022/01/08 06:11:56;;;;;;;11.20;9.10;;;;;;;;;;5067734;28;20416;-56
2022/01/08 06:14:22;;;;;;;11.50;8.37;;;;;;;;;;5067703;28;20503;-56
2022/01/08 06:16:49;;;;;;;9.33;7.50;;;;;;;;;;5065066;28;20231;-56
2022/01/08 06:19:15;;;;;;;9.77;7.23;;;;;;;;;;5067229;28;21110;-56
2022/01/08 06:21:42;;;;;;;11.90;7.13;;;;;;;;;;5050403;28;20406;-56
2022/01/08 06:24:08;;;;;;;12.23;8.10;;;;;;;;;;5067002;28;21206;-56
2022/01/08 06:26:34;;;;;;;9.23;7.80;;;;;;;;;;5067695;28;20536;-56
2022/01/08 06:29:00;;;;;;;10.93;8.33;;;;;;;;;;5067581;28;20422;-56
2022/01/08 06:31:26;;;;;;;9.73;7.47;;;;;;;;;;5066316;28;20971;-56
2022/01/08 06:33:53;;;;;;;12.23;8.20;;;;;;;;;;5066463;28;20275;-56
2022/01/08 06:36:19;;;;;;;8.57;7.40;;;;;;;;;;5068535;28;20431;-56
2022/01/08 06:38:45;;;;;;;10.70;8.17;;;;;;;;;;5067437;28;20422;-56
2022/01/08 06:41:12;;;;;;;11.50;8.37;;;;;;;;;;5060598;28;20513;-56
2022/01/08 06:43:37;;;;;;;12.03;7.80;;;;;;;;;;5065675;28;20941;-56
2022/01/08 06:46:04;;;;;;;9.90;7.87;;;;;;;;;;5066448;28;20442;-56
2022/01/08 06:48:30;;;;;;;9.97;7.30;;;;;;;;;;5065995;28;20568;-56
2022/01/08 06:50:56;;;;;;;10.17;8.07;;;;;;;;;;5059549;28;20426;-56
2022/01/08 06:53:22;;;;;;;10.63;7.43;;;;;;;;;;5062869;28;20427;-56
2022/01/08 06:55:48;;;;;;;11.63;7.23;;;;;;;;;;5085739;28;20425;-56
2022/01/08 06:58:15;;;;;;;9.73;8.10;;;;;;;;;;5086127;28;20421;-56
2022/01/08 07:00:41;;;;;;;11.37;8.20;;;;;;;;;;5067496;28;20425;-56
2022/01/08 07:03:11;;;;;;;15.83;8.87;;;;;;;;;;5082853;28;20464;-56
2022/01/08 07:05:37;;;;;;;11.40;8.57;;;;;;;;;;5084238;28;20425;-57
2022/01/08 07:08:03;;;;;;;10.70;7.97;;;;;;;;;;5067001;28;20476;-57
2022/01/08 07:10:30;;;;;;;10.90;6.93;;;;;;;;;;5086440;28;20421;-56
2022/01/08 07:12:56;;;;;;;9.33;8.20;;;;;;;;;;5086418;28;20420;-56
2022/01/08 07:15:22;;;;;;;10.67;8.50;;;;;;;;;;5085906;28;20799;-56
2022/01/08 07:17:48;;;;;;;9.83;7.67;;;;;;;;;;5087336;28;20827;-57
2022/01/08 07:20:14;;;;;;;10.43;8.17;;;;;;;;;;5081624;28;20425;-56
2022/01/08 07:22:40;;;;;;;11.73;8.40;;;;;;;;;;5086203;28;20199;-56
2022/01/08 07:25:07;;;;;;;9.63;7.50;;;;;;;;;;5080192;28;20963;-56
2022/01/08 07:27:33;;;;;;;10.23;7.50;;;;;;;;;;5087688;28;20414;-56
2022/01/08 07:30:00;;;;;;;9.23;7.03;;;;;;;;;;5085579;28;20534;-56
2022/01/08 07:32:26;;;;;;;10.83;6.70;;;;;;;;;;5086404;28;20436;-56
2022/01/08 07:34:53;;;;;;;12.87;8.17;;;;;;;;;;5073819;28;20460;-56
2022/01/08 07:37:19;;;;;;;10.87;7.10;;;;;;;;;;5086640;28;20418;-56
2022/01/08 07:39:45;;;;;;;10.37;7.87;;;;;;;;;;5080734;28;20438;-56
2022/01/08 07:42:11;;;;;;;7.77;7.00;;;;;;;;;;5084867;28;20815;-56
2022/01/08 07:44:37;;;;;;;10.67;7.40;;;;;;;;;;5086386;28;20646;-56
2022/01/08 07:47:03;;;;;;;11.80;7.53;;;;;;;;;;5087302;28;20460;-57
2022/01/08 07:49:29;;;;;;;7.90;6.47;;;;;;;;;;5078699;28;20839;-56
2022/01/08 07:51:55;;;;;;;8.63;6.97;;;;;;;;;;5091482;28;20516;-56
2022/01/08 07:54:22;;;;;;;8.87;7.40;;;;;;;;;;5082972;28;20265;-56
2022/01/08 07:56:48;;;;;;;10.67;7.90;;;;;;;;;;5068784;28;20530;-57
2022/01/08 07:59:14;;;;;;;10.10;7.23;;;;;;;;;;5073088;28;20967;-57
2022/01/08 08:01:40;;;;;;;12.37;7.00;;;;;;;;;;5060690;28;20460;-56
2022/01/08 08:04:06;;;;;;;13.67;7.77;;;;;;;;;;5049707;28;20505;-56
2022/01/08 08:06:32;;;;;;;8.07;7.10;;;;;;;;;;5065083;28;20455;-56
2022/01/08 08:08:59;;;;;;;10.70;7.53;;;;;;;;;;5068718;28;20978;-56
2022/01/08 08:11:25;;;;;;;8.93;7.20;;;;;;;;;;5065871;28;20419;-56
2022/01/08 08:13:51;;;;;;;11.03;7.37;;;;;;;;;;5073169;28;20701;-56
2022/01/08 08:16:20;;;;;;;9.27;7.70;;;;;;;;;;5077090;28;20433;-57
2022/01/08 08:18:46;;;;;;;11.90;7.47;;;;;;;;;;5078283;28;20418;-56
2022/01/08 08:21:12;;;;;;;14.43;8.07;;;;;;;;;;5074005;28;20425;-56
2022/01/08 08:23:38;;;;;;;8.53;7.07;;;;;;;;;;5076257;28;20207;-57
2022/01/08 08:26:04;;;;;;;9.77;7.23;;;;;;;;;;5073441;28;20627;-57
2022/01/08 08:28:30;;;;;;;9.30;7.30;;;;;;;;;;5069161;28;20181;-56
2022/01/08 08:30:56;;;;;;;9.10;7.63;;;;;;;;;;5078581;28;20414;-56
2022/01/08 08:33:22;;;;;;;11.63;7.83;;;;;;;;;;5074325;28;20779;-56
2022/01/08 08:35:48;;;;;;;12.10;6.70;;;;;;;;;;5063688;28;20469;-56
2022/01/08 08:38:14;;;;;;;9.60;7.30;;;;;;;;;;5069820;28;20426;-56
2022/01/08 08:40:40;;;;;;;10.03;8.03;;;;;;;;;;5067503;28;20783;-56
2022/01/08 08:43:07;;;;;;;11.13;8.30;;;;;;;;;;5077719;28;20455;-56
2022/01/08 08:45:33;;;;;;;16.03;8.53;;;;;;;;;;5062519;28;21010;-57
2022/01/08 08:47:59;;;;;;;16.40;9.30;;;;;;;;;;5069801;28;20500;-56
2022/01/08 08:50:25;;;;;;;10.93;7.90;;;;;;;;;;5067545;28;20518;-57
2022/01/08 08:52:53;;;;;;;14.73;8.07;;;;;;;;;;5045894;28;20423;-56
2022/01/08 08:55:19;;;;;;;12.47;7.87;;;;;;;;;;5066157;28;20474;-56
2022/01/08 08:57:46;;;;;;;11.20;8.03;;;;;;;;;;5062431;28;20450;-56
2022/01/08 09:00:12;;;;;;;12.63;9.10;;;;;;;;;;5065442;28;20427;-56
2022/01/08 09:02:38;;;;;;;10.37;8.83;;;;;;;;;;5045272;28;20522;-56
2022/01/08 09:05:05;;;;;;;13.90;10.00;;;;;;;;;;5066699;28;20426;-55
2022/01/08 09:07:32;;;;;;;14.23;9.53;;;;;;;;;;5069260;28;20953;-56
2022/01/08 09:09:58;;;;;;;15.03;9.23;;;;;;;;;;5067783;28;20407;-55
2022/01/08 09:12:24;;;;;;;11.27;8.03;;;;;;;;;;5065307;28;20423;-56
2022/01/08 09:14:50;;;;;;;10.97;9.70;;;;;;;;;;5066194;28;21012;-55
2022/01/08 09:17:16;;;;;;;15.17;8.50;;;;;;;;;;5069468;28;20415;-55
2022/01/08 09:19:43;;;;;;;10.37;9.27;;;;;;;;;;5050640;28;20423;-55
2022/01/08 09:22:09;;;;;;;13.90;8.80;;;;;;;;;;5067862;28;20455;-55
2022/01/08 09:24:36;;;;;;;14.13;9.50;;;;;;;;;;5066267;28;20426;-55
2022/01/08 09:27:03;;;;;;;12.33;8.50;;;;;;;;;;5066549;28;20426;-55
2022/01/08 09:29:29;;;;;;;12.90;9.00;;;;;;;;;;5066971;28;20956;-56
2022/01/08 09:31:55;;;;;;;12.53;8.33;;;;;;;;;;5067996;28;20430;-58
2022/01/08 09:34:21;;;;;;;15.73;9.67;;;;;;;;;;5049284;28;20484;-57
2022/01/08 09:36:47;;;;;;;16.53;10.37;;;;;;;;;;5068459;28;20453;-58
2022/01/08 09:39:14;;;;;;;15.80;9.77;;;;;;;;;;5066174;28;20898;-56
2022/01/08 09:41:40;;;;;;;14.43;10.47;;;;;;;;;;5069426;28;20415;-57
2022/01/08 09:44:06;;;;;;;25.47;10.30;;;;;;;;;;5067063;28;20466;-57
2022/01/08 09:46:32;;;;;;;16.07;9.93;;;;;;;;;;5068117;28;20422;-58
2022/01/08 09:48:58;;;;;;;43.40;11.80;;;;;;;;;;5048036;28;20976;-58
2022/01/08 09:51:26;;;;;;;28.93;10.97;;;;;;;;;;5069602;28;20411;-60
2022/01/08 09:53:52;;;;;;;96.57;18.97;;;;;;;;;;5066001;28;20462;-59
2022/01/08 09:56:18;;;;;;;97.43;17.33;;;;;;;;;;5069446;28;20841;-59
2022/01/08 09:58:44;;;;;;;117.20;21.47;;;;;;;;;;5063187;28;20473;-57
2022/01/08 10:01:24;;;;;;;122.33;18.17;;;;;;;;;;5068728;28;20414;-59
2022/01/08 10:03:50;;;;;;;100.87;17.73;;;;;;;;;;5069228;28;20957;-58
2022/01/08 10:06:21;;;;;;;133.20;22.50;;;;;;;;;;5087891;28;20951;-58
2022/01/08 10:08:48;;;;;;;223.93;26.03;;;;;;;;;;5068890;28;20422;-59
2022/01/08 10:11:14;;;;;;;118.47;21.37;;;;;;;;;;5084450;28;20897;-58
2022/01/08 10:13:41;;;;;;;98.37;18.43;;;;;;;;;;5086629;28;20422;-58
2022/01/08 10:19:00;;;;;;;252.97;29.90;;;;;;;;;;5078738;28;20870;-58
2022/01/08 10:21:27;;;;;;;305.60;33.07;;;;;;;;;;5089155;28;20405;-59
2022/01/08 10:23:57;;;;;;;284.53;32.60;;;;;;;;;;5082438;28;20607;-58
2022/01/08 10:26:30;;;;;;;345.20;32.63;;;;;;;;;;5089219;28;20410;-58
2022/01/08 10:28:57;;;;;;;292.57;31.70;;;;;;;;;;5087179;28;20804;-59
2022/01/08 10:31:25;;;;;;;232.47;31.33;;;;;;;;;;5075289;28;20992;-58
2022/01/08 10:33:54;;;;;;;242.13;33.73;;;;;;;;;;5072684;28;20788;-59
2022/01/08 10:36:27;;;;;;;173.80;22.63;;;;;;;;;;5089109;28;20184;-61
2022/01/08 10:38:54;;;;;;;124.13;19.77;;;;;;;;;;5087302;28;20172;-59
2022/01/08 10:41:21;;;;;;;90.33;16.60;;;;;;;;;;5071029;28;20198;-59
2022/01/08 10:43:47;;;;;;;83.40;16.30;;;;;;;;;;5073625;28;20197;-58
2022/01/08 10:46:14;;;;;;;68.20;14.10;;;;;;;;;;5069712;28;20516;-59
2022/01/08 10:48:44;;;;;;;49.00;12.87;;;;;;;;;;5077406;28;20506;-57
2022/01/08 10:51:12;;;;;;;30.77;11.17;;;;;;;;;;5065830;28;20463;-60
2022/01/08 10:53:50;;;;;;;44.23;13.23;;;;;;;;;;5087602;28;20461;-59
2022/01/08 10:56:24;;;;;;;47.73;12.70;;;;;;;;;;5068430;28;20431;-60
2022/01/08 10:58:53;;;;;;;30.20;11.20;;;;;;;;;;5067245;28;20464;-59
2022/01/08 11:01:37;;;;;;;27.47;9.40;;;;;;;;;;5057240;28;20694;-60
2022/01/08 11:04:04;;;;;;;24.27;10.53;;;;;;;;;;5065215;28;20928;-57
2022/01/08 11:06:30;;;;;;;20.50;9.43;;;;;;;;;;5034102;28;20423;-59
2022/01/08 11:09:03;;;;;;;20.47;9.60;;;;;;;;;;5041234;28;20172;-60
2022/01/08 11:11:32;;;;;;;19.20;9.47;;;;;;;;;;5065769;28;20433;-60
2022/01/08 11:14:06;;;;;;;13.83;8.90;;;;;;;;;;5048524;28;21040;-58
2022/01/08 11:16:32;;;;;;;25.83;8.63;;;;;;;;;;5066176;28;20217;-59
2022/01/08 11:18:59;;;;;;;11.77;8.63;;;;;;;;;;5068571;28;20442;-58
2022/01/08 11:21:28;;;;;;;16.50;8.60;;;;;;;;;;5066108;28;20972;-58
2022/01/08 11:23:54;;;;;;;17.50;8.43;;;;;;;;;;5066932;28;20904;-59
2022/01/08 11:26:20;;;;;;;12.37;8.00;;;;;;;;;;5065097;28;20441;-58
2022/01/08 11:28:47;;;;;;;13.47;8.37;;;;;;;;;;5066081;28;20180;-59
2022/01/08 11:31:14;;;;;;;10.07;7.30;;;;;;;;;;5066848;28;20176;-58
2022/01/08 11:33:44;;;;;;;10.63;7.30;;;;;;;;;;5065820;28;20505;-59
2022/01/08 11:36:13;;;;;;;7.67;6.13;;;;;;;;;;5066546;28;20479;-58
2022/01/08 11:38:43;;;;;;;15.03;7.10;;;;;;;;;;5066957;28;20422;-59
2022/01/08 11:41:09;;;;;;;15.40;6.60;;;;;;;;;;5067066;28;20508;-59
2022/01/08 11:43:36;;;;;;;13.77;6.37;;;;;;;;;;5065788;28;20482;-59
2022/01/08 11:46:07;;;;;;;9.27;6.67;;;;;;;;;;5048653;28;20275;-59
2022/01/08 11:48:33;;;;;;;8.97;5.87;;;;;;;;;;5066071;28;20549;-58
2022/01/08 11:51:01;;;;;;;8.47;6.43;;;;;;;;;;5067227;28;20426;-58
2022/01/08 11:53:31;;;;;;;8.20;5.77;;;;;;;;;;5068383;28;20407;-58
2022/01/08 11:55:58;;;;;;;8.77;6.00;;;;;;;;;;5086291;28;20414;-58
2022/01/08 11:58:30;;;;;;;7.93;5.87;;;;;;;;;;5081418;28;20413;-59
2022/01/08 12:00:59;;;;;;;8.13;5.33;;;;;;;;;;5086210;28;20492;-56
2022/01/08 12:03:45;;;;;;;8.47;5.23;;;;;;;;;;5063063;28;20465;-57
2022/01/08 12:06:21;;;;;;;9.10;4.83;;;;;;;;;;5068598;28;20837;-57
2022/01/08 12:08:59;;;;;;;9.23;5.53;;;;;;;;;;5086503;28;20401;-57
2022/01/08 12:11:26;;;;;;;10.13;5.20;;;;;;;;;;5087561;28;20915;-57
2022/01/08 12:13:52;;;;;;;6.43;4.40;;;;;;;;;;5072472;28;20449;-57
2022/01/08 12:16:34;;;;;;;8.23;4.63;;;;;;;;;;5067867;28;20581;-58
2022/01/08 12:19:00;;;;;;;7.07;4.70;;;;;;;;;;5087179;28;20526;-57
2022/01/08 12:21:44;;;;;;;5.33;4.13;;;;;;;;;;5086623;28;20425;-57
2022/01/08 12:24:20;;;;;;;8.17;4.20;;;;;;;;;;5086831;28;20192;-56
2022/01/08 12:26:46;;;;;;;6.93;3.60;;;;;;;;;;5083118;28;20448;-57
2022/01/08 12:29:31;;;;;;;7.90;3.73;;;;;;;;;;5073847;28;20905;-57
2022/01/08 12:32:37;;;;;;;7.97;3.30;;;;;;;;;;5081042;28;20165;-57
2022/01/08 12:35:09;;;;;;;8.53;4.40;;;;;;;;;;4981700;28;20219;-58
2022/01/08 12:37:36;;;;;;;7.10;4.03;;;;;;;;;;4975079;28;20196;-57
2022/01/08 12:40:03;;;;;;;3.97;3.47;;;;;;;;;;5038276;28;20643;-57
2022/01/08 12:42:29;;;;;;;7.27;3.17;;;;;;;;;;5087749;28;20218;-57
2022/01/08 12:45:10;;;;;;;9.90;3.73;;;;;;;;;;5089368;28;20227;-61
2022/01/08 12:47:40;;;;;;;6.83;3.47;;;;;;;;;;5089321;28;20171;-61
2022/01/08 12:50:20;;;;;;;5.83;3.23;;;;;;;;;;5065962;28;20282;-60
2022/01/08 12:53:04;;;;;;;4.73;3.07;;;;;;;;;;5089415;28;20184;-61
2022/01/08 12:55:35;;;;;;;5.40;4.03;;;;;;;;;;5083447;28;20249;-60
2022/01/08 12:58:02;;;;;;;9.00;3.90;;;;;;;;;;5088068;28;20244;-60
2022/01/08 13:00:28;;;;;;;6.23;3.83;;;;;;;;;;5087595;28;20179;-60
2022/01/08 13:02:54;;;;;;;4.87;3.03;;;;;;;;;;5081151;28;20199;-60
2022/01/08 13:05:20;;;;;;;9.70;3.00;;;;;;;;;;5076151;28;20698;-60
2022/01/08 13:07:49;;;;;;;3.70;3.20;;;;;;;;;;5088762;28;20262;-60
2022/01/08 13:10:18;;;;;;;3.73;2.80;;;;;;;;;;5073143;28;20283;-60
2022/01/08 13:13:01;;;;;;;5.27;3.30;;;;;;;;;;5088722;28;20692;-60
2022/01/08 13:15:31;;;;;;;5.43;3.03;;;;;;;;;;5071225;28;20180;-59
2022/01/08 13:18:36;;;;;;;5.37;2.83;;;;;;;;;;5069290;28;20203;-60
2022/01/08 13:21:04;;;;;;;4.83;2.43;;;;;;;;;;5027475;28;20217;-61
2022/01/08 13:23:30;;;;;;;3.80;3.10;;;;;;;;;;5035559;28;20262;-60
2022/01/08 13:25:57;;;;;;;3.80;2.67;;;;;;;;;;5047868;28;20223;-61
2022/01/08 13:28:24;;;;;;;3.10;2.53;;;;;;;;;;5088037;28;20781;-60
2022/01/08 13:30:51;;;;;;;6.63;3.87;;;;;;;;;;5088872;28;20176;-59
2022/01/08 13:33:24;;;;;;;3.37;2.60;;;;;;;;;;5065892;28;20180;-60
2022/01/08 13:36:09;;;;;;;3.07;2.63;;;;;;;;;;5086420;28;20183;-60
2022/01/08 13:38:36;;;;;;;4.33;3.43;;;;;;;;;;5088602;28;20182;-60
2022/01/08 13:41:13;;;;;;;6.97;3.13;;;;;;;;;;5078177;28;20187;-59
2022/01/08 13:43:55;;;;;;;6.13;2.97;;;;;;;;;;5088402;28;20227;-59
2022/01/08 13:46:21;;;;;;;5.70;2.83;;;;;;;;;;5085834;28;20425;-60
2022/01/08 13:48:48;;;;;;;4.93;3.03;;;;;;;;;;5075520;28;20187;-60
2022/01/08 13:51:15;;;;;;;4.27;3.00;;;;;;;;;;5085257;28;20673;-60
2022/01/08 13:53:42;;;;;;;4.10;2.80;;;;;;;;;;5081445;28;20212;-59
2022/01/08 13:56:08;;;;;;;8.70;3.17;;;;;;;;;;5061582;28;20207;-60
2022/01/08 13:58:34;;;;;;;4.07;2.87;;;;;;;;;;5059622;28;20193;-60
2022/01/08 14:01:05;;;;;;;5.40;3.10;;;;;;;;;;5057837;28;20173;-60
2022/01/08 14:03:41;;;;;;;7.07;3.27;;;;;;;;;;5054482;28;20200;-60
2022/01/08 14:06:08;;;;;;;3.93;2.67;;;;;;;;;;5031229;28;20180;-59
2022/01/08 14:08:35;;;;;;;4.97;3.03;;;;;;;;;;5052523;28;20237;-60
2022/01/08 14:11:02;;;;;;;3.40;2.50;;;;;;;;;;5068504;28;21015;-60
2022/01/08 14:13:47;;;;;;;6.97;3.07;;;;;;;;;;5067778;28;20556;-60
2022/01/08 14:16:13;;;;;;;2.63;2.43;;;;;;;;;;5066679;28;20202;-60
2022/01/08 14:18:40;;;;;;;3.30;2.90;;;;;;;;;;5067079;28;20184;-60
2022/01/08 14:21:16;;;;;;;3.60;2.70;;;;;;;;;;5061728;28;20449;-60
2022/01/08 14:23:43;;;;;;;7.73;3.03;;;;;;;;;;5062618;28;20270;-60
2022/01/08 14:26:13;;;;;;;4.57;2.93;;;;;;;;;;5068744;28;20176;-59
2022/01/08 14:28:39;;;;;;;6.30;3.00;;;;;;;;;;5060583;28;20186;-60
2022/01/08 14:31:17;;;;;;;6.13;2.97;;;;;;;;;;5047785;28;20177;-61
2022/01/08 14:34:04;;;;;;;4.17;3.33;;;;;;;;;;5049465;28;20624;-61
2022/01/08 14:36:44;;;;;;;3.60;2.37;;;;;;;;;;5064828;28;20446;-60
2022/01/08 14:39:10;;;;;;;3.20;2.80;;;;;;;;;;5065793;28;20179;-61
2022/01/08 14:41:37;;;;;;;5.83;2.43;;;;;;;;;;5067905;28;20410;-59
2022/01/08 14:44:04;;;;;;;3.97;2.60;;;;;;;;;;5066050;28;20490;-60
2022/01/08 14:46:31;;;;;;;3.03;2.60;;;;;;;;;;5066022;28;20430;-60
2022/01/08 14:48:57;;;;;;;3.13;2.57;;;;;;;;;;5067279;28;20936;-60
2022/01/08 14:51:29;;;;;;;9.27;2.80;;;;;;;;;;5054959;28;20173;-61
2022/01/08 14:53:56;;;;;;;3.83;2.70;;;;;;;;;;5063755;28;20220;-60
2022/01/08 14:56:22;;;;;;;4.53;2.50;;;;;;;;;;5050234;28;20208;-60
2022/01/08 14:58:49;;;;;;;2.50;2.30;;;;;;;;;;5053783;28;20427;-61